sensor_id;sensor_type;location;lat;lon;timestamp;P1;durP1;ratioP1;P2;durP2;ratioP2
78382;SDS011;67668;52.294;4.692;2023-07-29T00:00:45;2.33;;;1.08;;
78382;SDS011;67668;52.294;4.692;2023-07-29T00:03:11;3.75;;;1.17;;
78382;SDS011;67668;52.294;4.692;2023-07-29T00:05:37;5.82;;;1.02;;
78382;SDS011;67668;52.294;4.692;2023-07-29T00:08:02;3.20;;;0.82;;
78382;SDS011;67668;52.294;4.692;2023-07-29T00:10:28;1.58;;;0.70;;
78382;SDS011;67668;52.294;4.692;2023-07-29T00:12:54;4.03;;;0.85;;
78382;SDS011;67668;52.294;4.692;2023-07-29T00:15:19;2.63;;;1.00;;
78382;SDS011;67668;52.294;4.692;2023-07-29T00:17:44;2.30;;;0.93;;
78382;SDS011;67668;52.294;4.692;2023-07-29T00:20:10;4.72;;;0.93;;
78382;SDS011;67668;52.294;4.692;2023-07-29T00:22:35;1.92;;;0.80;;
78382;SDS011;67668;52.294;4.692;2023-07-29T00:25:01;2.55;;;0.70;;
78382;SDS011;67668;52.294;4.692;2023-07-29T00:27:27;3.88;;;1.35;;
78382;SDS011;67668;52.294;4.692;2023-07-29T00:29:52;1.35;;;0.70;;
78382;SDS011;67668;52.294;4.692;2023-07-29T00:32:18;1.55;;;0.80;;
78382;SDS011;67668;52.294;4.692;2023-07-29T00:34:43;1.90;;;0.80;;
78382;SDS011;67668;52.294;4.692;2023-07-29T00:37:09;3.08;;;1.17;;
78382;SDS011;67668;52.294;4.692;2023-07-29T00:39:35;2.40;;;0.80;;
78382;SDS011;67668;52.294;4.692;2023-07-29T00:42:02;4.05;;;0.90;;
78382;SDS011;67668;52.294;4.692;2023-07-29T00:44:27;1.40;;;0.68;;
78382;SDS011;67668;52.294;4.692;2023-07-29T00:46:52;2.23;;;0.83;;
78382;SDS011;67668;52.294;4.692;2023-07-29T00:49:19;2.25;;;0.77;;
78382;SDS011;67668;52.294;4.692;2023-07-29T00:51:45;5.97;;;1.60;;
78382;SDS011;67668;52.294;4.692;2023-07-29T00:54:11;3.03;;;0.90;;
78382;SDS011;67668;52.294;4.692;2023-07-29T00:56:38;4.70;;;0.95;;
78382;SDS011;67668;52.294;4.692;2023-07-29T00:59:03;3.58;;;1.77;;
78382;SDS011;67668;52.294;4.692;2023-07-29T01:01:29;3.92;;;1.00;;
78382;SDS011;67668;52.294;4.692;2023-07-29T01:03:56;3.70;;;0.93;;
78382;SDS011;67668;52.294;4.692;2023-07-29T01:12:23;3.83;;;1.05;;
78382;SDS011;67668;52.294;4.692;2023-07-29T01:17:52;2.75;;;0.80;;
78382;SDS011;67668;52.294;4.692;2023-07-29T01:20:20;2.85;;;1.00;;
78382;SDS011;67668;52.294;4.692;2023-07-29T01:22:48;2.40;;;0.80;;
78382;SDS011;67668;52.294;4.692;2023-07-29T01:25:14;6.40;;;1.45;;
78382;SDS011;67668;52.294;4.692;2023-07-29T01:27:41;4.35;;;1.08;;
78382;SDS011;67668;52.294;4.692;2023-07-29T01:30:08;2.65;;;0.93;;
78382;SDS011;67668;52.294;4.692;2023-07-29T01:32:45;3.70;;;0.90;;
78382;SDS011;67668;52.294;4.692;2023-07-29T01:35:33;2.95;;;0.88;;
78382;SDS011;67668;52.294;4.692;2023-07-29T01:40:44;1.85;;;0.90;;
78382;SDS011;67668;52.294;4.692;2023-07-29T01:43:10;4.20;;;0.90;;
78382;SDS011;67668;52.294;4.692;2023-07-29T01:45:35;1.80;;;1.00;;
78382;SDS011;67668;52.294;4.692;2023-07-29T01:48:05;1.98;;;0.90;;
78382;SDS011;67668;52.294;4.692;2023-07-29T01:50:31;2.80;;;0.80;;
78382;SDS011;67668;52.294;4.692;2023-07-29T01:52:57;4.80;;;1.40;;
78382;SDS011;67668;52.294;4.692;2023-07-29T01:55:23;3.92;;;1.35;;
78382;SDS011;67668;52.294;4.692;2023-07-29T01:57:48;3.13;;;1.20;;
78382;SDS011;67668;52.294;4.692;2023-07-29T02:00:14;2.95;;;1.40;;
78382;SDS011;67668;52.294;4.692;2023-07-29T02:02:40;2.42;;;0.80;;
78382;SDS011;67668;52.294;4.692;2023-07-29T02:05:06;3.05;;;0.95;;
78382;SDS011;67668;52.294;4.692;2023-07-29T02:07:31;2.88;;;1.25;;
78382;SDS011;67668;52.294;4.692;2023-07-29T02:09:57;2.53;;;1.00;;
78382;SDS011;67668;52.294;4.692;2023-07-29T02:12:22;5.03;;;1.27;;
78382;SDS011;67668;52.294;4.692;2023-07-29T02:14:47;1.85;;;1.00;;
78382;SDS011;67668;52.294;4.692;2023-07-29T02:17:13;2.47;;;1.30;;
78382;SDS011;67668;52.294;4.692;2023-07-29T02:19:38;4.10;;;1.05;;
78382;SDS011;67668;52.294;4.692;2023-07-29T02:22:04;1.92;;;1.10;;
78382;SDS011;67668;52.294;4.692;2023-07-29T02:24:29;4.55;;;1.20;;
78382;SDS011;67668;52.294;4.692;2023-07-29T02:26:55;5.68;;;1.20;;
78382;SDS011;67668;52.294;4.692;2023-07-29T02:29:20;3.05;;;1.35;;
78382;SDS011;67668;52.294;4.692;2023-07-29T02:31:46;3.70;;;1.27;;
78382;SDS011;67668;52.294;4.692;2023-07-29T02:34:13;3.03;;;1.08;;
78382;SDS011;67668;52.294;4.692;2023-07-29T02:36:39;2.25;;;1.15;;
78382;SDS011;67668;52.294;4.692;2023-07-29T02:39:04;2.35;;;1.20;;
78382;SDS011;67668;52.294;4.692;2023-07-29T02:41:30;2.00;;;1.27;;
78382;SDS011;67668;52.294;4.692;2023-07-29T02:43:55;2.43;;;1.60;;
78382;SDS011;67668;52.294;4.692;2023-07-29T02:46:20;3.22;;;1.00;;
78382;SDS011;67668;52.294;4.692;2023-07-29T02:48:46;2.97;;;1.40;;
78382;SDS011;67668;52.294;4.692;2023-07-29T02:51:11;2.97;;;1.90;;
78382;SDS011;67668;52.294;4.692;2023-07-29T02:53:37;2.88;;;1.38;;
78382;SDS011;67668;52.294;4.692;2023-07-29T02:56:03;2.80;;;1.70;;
78382;SDS011;67668;52.294;4.692;2023-07-29T02:58:29;3.63;;;2.17;;
78382;SDS011;67668;52.294;4.692;2023-07-29T03:01:01;3.67;;;1.42;;
78382;SDS011;67668;52.294;4.692;2023-07-29T03:03:28;4.10;;;1.25;;
78382;SDS011;67668;52.294;4.692;2023-07-29T03:06:13;4.10;;;1.30;;
78382;SDS011;67668;52.294;4.692;2023-07-29T03:08:39;3.20;;;1.55;;
78382;SDS011;67668;52.294;4.692;2023-07-29T03:11:08;4.25;;;1.67;;
78382;SDS011;67668;52.294;4.692;2023-07-29T03:13:35;3.60;;;1.67;;
78382;SDS011;67668;52.294;4.692;2023-07-29T03:16:08;4.05;;;1.67;;
78382;SDS011;67668;52.294;4.692;2023-07-29T03:18:35;4.65;;;1.80;;
78382;SDS011;67668;52.294;4.692;2023-07-29T03:21:01;3.58;;;1.80;;
78382;SDS011;67668;52.294;4.692;2023-07-29T03:23:27;2.55;;;1.40;;
78382;SDS011;67668;52.294;4.692;2023-07-29T03:25:54;4.50;;;1.58;;
78382;SDS011;67668;52.294;4.692;2023-07-29T03:28:27;4.28;;;1.38;;
78382;SDS011;67668;52.294;4.692;2023-07-29T03:30:57;3.67;;;1.42;;
78382;SDS011;67668;52.294;4.692;2023-07-29T03:33:23;2.58;;;1.33;;
78382;SDS011;67668;52.294;4.692;2023-07-29T03:35:50;2.85;;;1.65;;
78382;SDS011;67668;52.294;4.692;2023-07-29T03:38:15;7.97;;;1.83;;
78382;SDS011;67668;52.294;4.692;2023-07-29T03:40:41;3.65;;;1.67;;
78382;SDS011;67668;52.294;4.692;2023-07-29T03:43:07;3.33;;;1.23;;
78382;SDS011;67668;52.294;4.692;2023-07-29T03:45:33;6.50;;;1.60;;
78382;SDS011;67668;52.294;4.692;2023-07-29T03:47:59;3.15;;;1.77;;
78382;SDS011;67668;52.294;4.692;2023-07-29T03:50:24;5.93;;;1.95;;
78382;SDS011;67668;52.294;4.692;2023-07-29T03:52:50;9.85;;;2.40;;
78382;SDS011;67668;52.294;4.692;2023-07-29T03:55:16;4.63;;;1.75;;
78382;SDS011;67668;52.294;4.692;2023-07-29T03:57:42;4.32;;;1.77;;
78382;SDS011;67668;52.294;4.692;2023-07-29T04:00:07;2.97;;;1.77;;
78382;SDS011;67668;52.294;4.692;2023-07-29T04:02:34;4.57;;;1.92;;
78382;SDS011;67668;52.294;4.692;2023-07-29T04:05:02;4.63;;;2.00;;
78382;SDS011;67668;52.294;4.692;2023-07-29T04:07:28;5.07;;;1.88;;
78382;SDS011;67668;52.294;4.692;2023-07-29T04:09:54;10.00;;;2.50;;
78382;SDS011;67668;52.294;4.692;2023-07-29T04:12:19;4.60;;;2.00;;
78382;SDS011;67668;52.294;4.692;2023-07-29T04:14:47;3.30;;;2.20;;
78382;SDS011;67668;52.294;4.692;2023-07-29T04:17:12;5.18;;;1.95;;
78382;SDS011;67668;52.294;4.692;2023-07-29T04:19:38;3.90;;;2.17;;
78382;SDS011;67668;52.294;4.692;2023-07-29T04:22:13;5.68;;;2.72;;
78382;SDS011;67668;52.294;4.692;2023-07-29T04:24:41;4.15;;;1.92;;
78382;SDS011;67668;52.294;4.692;2023-07-29T04:27:06;3.72;;;1.80;;
78382;SDS011;67668;52.294;4.692;2023-07-29T04:29:31;4.10;;;1.98;;
78382;SDS011;67668;52.294;4.692;2023-07-29T04:31:57;12.47;;;3.80;;
78382;SDS011;67668;52.294;4.692;2023-07-29T04:34:22;4.72;;;1.88;;
78382;SDS011;67668;52.294;4.692;2023-07-29T04:36:48;5.47;;;2.28;;
78382;SDS011;67668;52.294;4.692;2023-07-29T04:39:14;4.25;;;1.65;;
78382;SDS011;67668;52.294;4.692;2023-07-29T04:41:40;5.32;;;1.65;;
78382;SDS011;67668;52.294;4.692;2023-07-29T04:44:06;6.82;;;2.50;;
78382;SDS011;67668;52.294;4.692;2023-07-29T04:46:31;5.03;;;1.88;;
78382;SDS011;67668;52.294;4.692;2023-07-29T04:48:57;4.10;;;2.13;;
78382;SDS011;67668;52.294;4.692;2023-07-29T04:51:23;4.30;;;1.53;;
78382;SDS011;67668;52.294;4.692;2023-07-29T04:53:48;4.75;;;2.35;;
78382;SDS011;67668;52.294;4.692;2023-07-29T04:56:14;3.45;;;1.58;;
78382;SDS011;67668;52.294;4.692;2023-07-29T04:58:39;6.22;;;2.20;;
78382;SDS011;67668;52.294;4.692;2023-07-29T05:01:05;3.88;;;1.77;;
78382;SDS011;67668;52.294;4.692;2023-07-29T05:03:31;4.43;;;2.08;;
78382;SDS011;67668;52.294;4.692;2023-07-29T05:05:57;4.70;;;1.98;;
78382;SDS011;67668;52.294;4.692;2023-07-29T05:08:24;4.55;;;1.63;;
78382;SDS011;67668;52.294;4.692;2023-07-29T05:10:52;5.38;;;1.83;;
78382;SDS011;67668;52.294;4.692;2023-07-29T05:13:24;3.10;;;2.00;;
78382;SDS011;67668;52.294;4.692;2023-07-29T05:15:49;6.95;;;2.35;;
78382;SDS011;67668;52.294;4.692;2023-07-29T05:18:15;8.13;;;2.33;;
78382;SDS011;67668;52.294;4.692;2023-07-29T05:20:43;4.95;;;1.88;;
78382;SDS011;67668;52.294;4.692;2023-07-29T05:23:09;6.03;;;2.08;;
78382;SDS011;67668;52.294;4.692;2023-07-29T05:25:34;7.43;;;2.42;;
78382;SDS011;67668;52.294;4.692;2023-07-29T05:28:00;4.07;;;1.80;;
78382;SDS011;67668;52.294;4.692;2023-07-29T05:30:26;3.97;;;1.90;;
78382;SDS011;67668;52.294;4.692;2023-07-29T05:32:52;8.35;;;2.10;;
78382;SDS011;67668;52.294;4.692;2023-07-29T05:35:17;4.50;;;1.95;;
78382;SDS011;67668;52.294;4.692;2023-07-29T05:37:43;3.08;;;1.60;;
78382;SDS011;67668;52.294;4.692;2023-07-29T05:40:08;5.13;;;1.90;;
78382;SDS011;67668;52.294;4.692;2023-07-29T05:42:34;4.50;;;1.65;;
78382;SDS011;67668;52.294;4.692;2023-07-29T05:45:00;8.35;;;2.53;;
78382;SDS011;67668;52.294;4.692;2023-07-29T05:47:26;5.13;;;2.60;;
78382;SDS011;67668;52.294;4.692;2023-07-29T05:49:52;4.90;;;2.17;;
78382;SDS011;67668;52.294;4.692;2023-07-29T05:52:17;10.05;;;3.05;;
78382;SDS011;67668;52.294;4.692;2023-07-29T05:54:43;8.30;;;3.47;;
78382;SDS011;67668;52.294;4.692;2023-07-29T05:57:09;4.22;;;2.47;;
78382;SDS011;67668;52.294;4.692;2023-07-29T05:59:35;7.40;;;2.63;;
78382;SDS011;67668;52.294;4.692;2023-07-29T06:02:00;6.03;;;2.75;;
78382;SDS011;67668;52.294;4.692;2023-07-29T06:04:26;11.98;;;2.50;;
78382;SDS011;67668;52.294;4.692;2023-07-29T06:06:52;7.63;;;2.50;;
78382;SDS011;67668;52.294;4.692;2023-07-29T06:09:17;5.28;;;2.22;;
78382;SDS011;67668;52.294;4.692;2023-07-29T06:11:43;6.23;;;2.47;;
78382;SDS011;67668;52.294;4.692;2023-07-29T06:14:08;7.32;;;2.47;;
78382;SDS011;67668;52.294;4.692;2023-07-29T06:16:34;8.65;;;3.10;;
78382;SDS011;67668;52.294;4.692;2023-07-29T06:18:59;6.00;;;2.53;;
78382;SDS011;67668;52.294;4.692;2023-07-29T06:21:24;4.32;;;2.28;;
78382;SDS011;67668;52.294;4.692;2023-07-29T06:23:50;4.18;;;1.83;;
78382;SDS011;67668;52.294;4.692;2023-07-29T06:26:15;6.15;;;3.25;;
78382;SDS011;67668;52.294;4.692;2023-07-29T06:28:41;5.95;;;1.67;;
78382;SDS011;67668;52.294;4.692;2023-07-29T06:31:06;5.05;;;1.85;;
78382;SDS011;67668;52.294;4.692;2023-07-29T06:33:32;6.38;;;1.92;;
78382;SDS011;67668;52.294;4.692;2023-07-29T06:35:57;8.52;;;2.53;;
78382;SDS011;67668;52.294;4.692;2023-07-29T06:38:22;7.07;;;2.40;;
78382;SDS011;67668;52.294;4.692;2023-07-29T06:40:48;4.35;;;2.05;;
78382;SDS011;67668;52.294;4.692;2023-07-29T06:43:14;7.03;;;2.38;;
78382;SDS011;67668;52.294;4.692;2023-07-29T06:45:39;6.15;;;2.20;;
78382;SDS011;67668;52.294;4.692;2023-07-29T06:48:05;5.05;;;1.67;;
78382;SDS011;67668;52.294;4.692;2023-07-29T06:50:30;5.55;;;1.50;;
78382;SDS011;67668;52.294;4.692;2023-07-29T06:52:55;6.33;;;1.57;;
78382;SDS011;67668;52.294;4.692;2023-07-29T06:55:21;5.07;;;1.38;;
78382;SDS011;67668;52.294;4.692;2023-07-29T06:57:46;4.85;;;1.00;;
78382;SDS011;67668;52.294;4.692;2023-07-29T07:00:12;5.95;;;1.10;;
78382;SDS011;67668;52.294;4.692;2023-07-29T07:02:37;7.38;;;1.30;;
78382;SDS011;67668;52.294;4.692;2023-07-29T07:05:03;2.83;;;1.13;;
78382;SDS011;67668;52.294;4.692;2023-07-29T07:07:28;7.22;;;1.15;;
78382;SDS011;67668;52.294;4.692;2023-07-29T07:09:54;4.88;;;1.08;;
78382;SDS011;67668;52.294;4.692;2023-07-29T07:12:19;6.20;;;1.80;;
78382;SDS011;67668;52.294;4.692;2023-07-29T07:14:44;4.13;;;1.20;;
78382;SDS011;67668;52.294;4.692;2023-07-29T07:17:10;5.85;;;1.10;;
78382;SDS011;67668;52.294;4.692;2023-07-29T07:19:35;3.33;;;0.93;;
78382;SDS011;67668;52.294;4.692;2023-07-29T07:22:01;5.03;;;1.10;;
78382;SDS011;67668;52.294;4.692;2023-07-29T07:24:26;7.03;;;1.20;;
78382;SDS011;67668;52.294;4.692;2023-07-29T07:26:51;5.28;;;1.27;;
78382;SDS011;67668;52.294;4.692;2023-07-29T07:29:17;5.57;;;0.95;;
78382;SDS011;67668;52.294;4.692;2023-07-29T07:31:48;3.55;;;1.05;;
78382;SDS011;67668;52.294;4.692;2023-07-29T07:34:15;4.05;;;0.93;;
78382;SDS011;67668;52.294;4.692;2023-07-29T07:36:41;2.78;;;0.98;;
78382;SDS011;67668;52.294;4.692;2023-07-29T07:39:06;6.07;;;1.35;;
78382;SDS011;67668;52.294;4.692;2023-07-29T07:41:31;5.82;;;1.00;;
78382;SDS011;67668;52.294;4.692;2023-07-29T07:43:57;5.97;;;1.20;;
78382;SDS011;67668;52.294;4.692;2023-07-29T07:46:22;5.10;;;1.20;;
78382;SDS011;67668;52.294;4.692;2023-07-29T07:48:48;5.93;;;1.23;;
78382;SDS011;67668;52.294;4.692;2023-07-29T07:51:13;7.00;;;1.40;;
78382;SDS011;67668;52.294;4.692;2023-07-29T07:53:39;3.95;;;1.00;;
78382;SDS011;67668;52.294;4.692;2023-07-29T07:56:05;7.13;;;1.40;;
78382;SDS011;67668;52.294;4.692;2023-07-29T07:58:31;4.25;;;1.40;;
78382;SDS011;67668;52.294;4.692;2023-07-29T08:01:06;4.80;;;1.10;;
78382;SDS011;67668;52.294;4.692;2023-07-29T08:03:32;3.78;;;1.27;;
78382;SDS011;67668;52.294;4.692;2023-07-29T08:05:58;2.53;;;1.13;;
78382;SDS011;67668;52.294;4.692;2023-07-29T08:08:25;4.07;;;1.40;;
78382;SDS011;67668;52.294;4.692;2023-07-29T08:10:55;9.02;;;1.23;;
78382;SDS011;67668;52.294;4.692;2023-07-29T08:13:22;3.50;;;1.50;;
78382;SDS011;67668;52.294;4.692;2023-07-29T08:15:49;4.53;;;1.33;;
78382;SDS011;67668;52.294;4.692;2023-07-29T08:18:15;3.05;;;1.00;;
78382;SDS011;67668;52.294;4.692;2023-07-29T08:20:50;3.70;;;1.58;;
78382;SDS011;67668;52.294;4.692;2023-07-29T08:23:20;4.20;;;1.23;;
78382;SDS011;67668;52.294;4.692;2023-07-29T08:25:50;5.07;;;1.30;;
78382;SDS011;67668;52.294;4.692;2023-07-29T08:28:17;4.80;;;1.60;;
78382;SDS011;67668;52.294;4.692;2023-07-29T08:30:42;9.55;;;1.65;;
78382;SDS011;67668;52.294;4.692;2023-07-29T08:33:08;3.95;;;1.35;;
78382;SDS011;67668;52.294;4.692;2023-07-29T08:35:33;2.97;;;1.45;;
78382;SDS011;67668;52.294;4.692;2023-07-29T08:38:01;7.65;;;1.92;;
78382;SDS011;67668;52.294;4.692;2023-07-29T08:40:27;6.82;;;1.67;;
78382;SDS011;67668;52.294;4.692;2023-07-29T08:42:54;7.25;;;1.70;;
78382;SDS011;67668;52.294;4.692;2023-07-29T08:45:23;3.10;;;1.45;;
78382;SDS011;67668;52.294;4.692;2023-07-29T08:47:49;7.78;;;1.52;;
78382;SDS011;67668;52.294;4.692;2023-07-29T08:50:19;7.43;;;1.50;;
78382;SDS011;67668;52.294;4.692;2023-07-29T08:52:46;8.27;;;2.00;;
78382;SDS011;67668;52.294;4.692;2023-07-29T08:55:14;6.25;;;1.50;;
78382;SDS011;67668;52.294;4.692;2023-07-29T08:57:40;7.20;;;1.52;;
78382;SDS011;67668;52.294;4.692;2023-07-29T09:00:05;5.85;;;1.83;;
78382;SDS011;67668;52.294;4.692;2023-07-29T09:02:32;7.38;;;1.58;;
78382;SDS011;67668;52.294;4.692;2023-07-29T09:04:57;4.80;;;1.20;;
78382;SDS011;67668;52.294;4.692;2023-07-29T09:07:23;2.72;;;1.05;;
78382;SDS011;67668;52.294;4.692;2023-07-29T09:09:48;5.60;;;1.90;;
78382;SDS011;67668;52.294;4.692;2023-07-29T09:12:14;7.63;;;1.73;;
78382;SDS011;67668;52.294;4.692;2023-07-29T09:14:39;5.68;;;1.77;;
78382;SDS011;67668;52.294;4.692;2023-07-29T09:17:08;9.85;;;1.77;;
78382;SDS011;67668;52.294;4.692;2023-07-29T09:19:34;6.57;;;1.75;;
78382;SDS011;67668;52.294;4.692;2023-07-29T09:22:01;5.28;;;2.25;;
78382;SDS011;67668;52.294;4.692;2023-07-29T09:24:26;2.63;;;1.45;;
78382;SDS011;67668;52.294;4.692;2023-07-29T09:26:54;4.28;;;1.63;;
78382;SDS011;67668;52.294;4.692;2023-07-29T09:29:23;6.03;;;1.63;;
78382;SDS011;67668;52.294;4.692;2023-07-29T09:31:53;9.20;;;1.40;;
78382;SDS011;67668;52.294;4.692;2023-07-29T09:34:18;8.63;;;1.73;;
78382;SDS011;67668;52.294;4.692;2023-07-29T09:36:44;4.93;;;1.63;;
78382;SDS011;67668;52.294;4.692;2023-07-29T09:39:12;6.35;;;1.40;;
78382;SDS011;67668;52.294;4.692;2023-07-29T09:41:40;6.35;;;1.80;;
78382;SDS011;67668;52.294;4.692;2023-07-29T09:44:06;5.78;;;1.65;;
78382;SDS011;67668;52.294;4.692;2023-07-29T09:46:33;6.40;;;1.15;;
78382;SDS011;67668;52.294;4.692;2023-07-29T09:49:00;3.72;;;1.30;;
78382;SDS011;67668;52.294;4.692;2023-07-29T09:51:27;2.83;;;1.50;;
78382;SDS011;67668;52.294;4.692;2023-07-29T09:53:52;5.40;;;1.33;;
78382;SDS011;67668;52.294;4.692;2023-07-29T09:56:18;4.50;;;1.40;;
78382;SDS011;67668;52.294;4.692;2023-07-29T09:58:50;4.40;;;1.40;;
78382;SDS011;67668;52.294;4.692;2023-07-29T10:01:17;6.38;;;1.25;;
78382;SDS011;67668;52.294;4.692;2023-07-29T10:03:43;8.10;;;1.63;;
78382;SDS011;67668;52.294;4.692;2023-07-29T10:06:09;6.28;;;1.73;;
78382;SDS011;67668;52.294;4.692;2023-07-29T10:08:35;4.68;;;1.58;;
78382;SDS011;67668;52.294;4.692;2023-07-29T10:11:05;8.98;;;1.50;;
78382;SDS011;67668;52.294;4.692;2023-07-29T10:13:32;4.75;;;1.38;;
78382;SDS011;67668;52.294;4.692;2023-07-29T10:15:59;5.72;;;1.65;;
78382;SDS011;67668;52.294;4.692;2023-07-29T10:18:27;6.18;;;1.63;;
78382;SDS011;67668;52.294;4.692;2023-07-29T10:20:54;6.47;;;1.52;;
78382;SDS011;67668;52.294;4.692;2023-07-29T10:23:22;6.80;;;1.67;;
78382;SDS011;67668;52.294;4.692;2023-07-29T10:25:50;5.43;;;1.35;;
78382;SDS011;67668;52.294;4.692;2023-07-29T10:28:23;5.15;;;1.63;;
78382;SDS011;67668;52.294;4.692;2023-07-29T10:30:51;6.70;;;1.42;;
78382;SDS011;67668;52.294;4.692;2023-07-29T10:33:17;8.35;;;1.70;;
78382;SDS011;67668;52.294;4.692;2023-07-29T10:35:42;6.75;;;2.03;;
78382;SDS011;67668;52.294;4.692;2023-07-29T10:38:08;5.70;;;1.42;;
78382;SDS011;67668;52.294;4.692;2023-07-29T10:43:12;4.45;;;1.17;;
78382;SDS011;67668;52.294;4.692;2023-07-29T10:45:43;5.47;;;1.58;;
78382;SDS011;67668;52.294;4.692;2023-07-29T10:48:12;4.32;;;1.48;;
78382;SDS011;67668;52.294;4.692;2023-07-29T10:54:03;7.40;;;1.90;;
78382;SDS011;67668;52.294;4.692;2023-07-29T10:56:35;3.92;;;1.60;;
78382;SDS011;67668;52.294;4.692;2023-07-29T10:59:30;7.57;;;1.52;;
78382;SDS011;67668;52.294;4.692;2023-07-29T11:04:45;4.80;;;1.48;;
78382;SDS011;67668;52.294;4.692;2023-07-29T11:12:39;1.90;;;0.93;;
78382;SDS011;67668;52.294;4.692;2023-07-29T11:17:52;4.72;;;1.45;;
78382;SDS011;67668;52.294;4.692;2023-07-29T11:20:25;7.13;;;1.33;;
78382;SDS011;67668;52.294;4.692;2023-07-29T11:22:52;4.65;;;1.30;;
78382;SDS011;67668;52.294;4.692;2023-07-29T11:25:18;4.45;;;1.08;;
78382;SDS011;67668;52.294;4.692;2023-07-29T11:27:45;2.05;;;0.90;;
78382;SDS011;67668;52.294;4.692;2023-07-29T11:30:12;4.43;;;1.15;;
78382;SDS011;67668;52.294;4.692;2023-07-29T11:32:39;5.97;;;1.25;;
78382;SDS011;67668;52.294;4.692;2023-07-29T11:35:10;3.45;;;1.05;;
78382;SDS011;67668;52.294;4.692;2023-07-29T11:37:44;4.35;;;0.60;;
78382;SDS011;67668;52.294;4.692;2023-07-29T11:40:13;2.33;;;0.60;;
78382;SDS011;67668;52.294;4.692;2023-07-29T11:42:43;3.00;;;0.57;;
78382;SDS011;67668;52.294;4.692;2023-07-29T11:45:10;1.75;;;0.50;;
78382;SDS011;67668;52.294;4.692;2023-07-29T11:47:36;1.52;;;0.60;;
78382;SDS011;67668;52.294;4.692;2023-07-29T11:50:02;2.90;;;0.55;;
78382;SDS011;67668;52.294;4.692;2023-07-29T11:52:31;1.85;;;0.40;;
78382;SDS011;67668;52.294;4.692;2023-07-29T11:54:57;3.35;;;0.30;;
78382;SDS011;67668;52.294;4.692;2023-07-29T11:57:23;3.60;;;0.35;;
78382;SDS011;67668;52.294;4.692;2023-07-29T11:59:49;0.88;;;0.30;;
78382;SDS011;67668;52.294;4.692;2023-07-29T12:02:17;1.73;;;0.40;;
78382;SDS011;67668;52.294;4.692;2023-07-29T12:04:47;2.90;;;0.20;;
78382;SDS011;67668;52.294;4.692;2023-07-29T12:07:14;3.83;;;0.43;;
78382;SDS011;67668;52.294;4.692;2023-07-29T12:09:42;1.13;;;0.40;;
78382;SDS011;67668;52.294;4.692;2023-07-29T12:12:08;1.45;;;0.30;;
78382;SDS011;67668;52.294;4.692;2023-07-29T12:14:34;1.40;;;0.20;;
78382;SDS011;67668;52.294;4.692;2023-07-29T12:17:00;4.20;;;0.77;;
78382;SDS011;67668;52.294;4.692;2023-07-29T12:19:31;1.85;;;0.47;;
78382;SDS011;67668;52.294;4.692;2023-07-29T12:21:59;1.02;;;0.45;;
78382;SDS011;67668;52.294;4.692;2023-07-29T12:24:25;1.27;;;0.30;;
78382;SDS011;67668;52.294;4.692;2023-07-29T12:26:50;0.85;;;0.40;;
78382;SDS011;67668;52.294;4.692;2023-07-29T12:29:18;1.73;;;0.70;;
78382;SDS011;67668;52.294;4.692;2023-07-29T12:31:47;2.90;;;0.47;;
78382;SDS011;67668;52.294;4.692;2023-07-29T12:34:19;2.85;;;0.55;;
78382;SDS011;67668;52.294;4.692;2023-07-29T12:36:49;1.55;;;0.60;;
78382;SDS011;67668;52.294;4.692;2023-07-29T12:39:19;1.50;;;0.47;;
78382;SDS011;67668;52.294;4.692;2023-07-29T12:41:49;1.25;;;0.40;;
78382;SDS011;67668;52.294;4.692;2023-07-29T12:44:15;1.90;;;0.68;;
78382;SDS011;67668;52.294;4.692;2023-07-29T12:46:41;2.70;;;0.43;;
78382;SDS011;67668;52.294;4.692;2023-07-29T12:49:07;1.23;;;0.88;;
78382;SDS011;67668;52.294;4.692;2023-07-29T12:51:32;3.65;;;0.35;;
78382;SDS011;67668;52.294;4.692;2023-07-29T12:53:58;2.60;;;0.22;;
78382;SDS011;67668;52.294;4.692;2023-07-29T12:56:24;2.83;;;0.50;;
78382;SDS011;67668;52.294;4.692;2023-07-29T12:58:49;2.58;;;0.50;;
78382;SDS011;67668;52.294;4.692;2023-07-29T13:01:15;3.42;;;0.60;;
78382;SDS011;67668;52.294;4.692;2023-07-29T13:03:44;3.90;;;0.93;;
78382;SDS011;67668;52.294;4.692;2023-07-29T13:06:10;2.20;;;0.60;;
78382;SDS011;67668;52.294;4.692;2023-07-29T13:08:35;2.95;;;1.08;;
78382;SDS011;67668;52.294;4.692;2023-07-29T13:11:01;5.07;;;1.58;;
78382;SDS011;67668;52.294;4.692;2023-07-29T13:13:27;3.65;;;1.15;;
78382;SDS011;67668;52.294;4.692;2023-07-29T13:15:52;4.03;;;0.70;;
78382;SDS011;67668;52.294;4.692;2023-07-29T13:18:18;3.95;;;0.80;;
78382;SDS011;67668;52.294;4.692;2023-07-29T13:20:44;3.67;;;1.75;;
78382;SDS011;67668;52.294;4.692;2023-07-29T13:23:10;3.38;;;0.75;;
78382;SDS011;67668;52.294;4.692;2023-07-29T13:25:35;3.72;;;1.08;;
78382;SDS011;67668;52.294;4.692;2023-07-29T13:28:01;1.83;;;0.63;;
78382;SDS011;67668;52.294;4.692;2023-07-29T13:30:26;3.83;;;0.70;;
78382;SDS011;67668;52.294;4.692;2023-07-29T13:32:51;2.80;;;0.98;;
78382;SDS011;67668;52.294;4.692;2023-07-29T13:35:17;3.15;;;1.05;;
78382;SDS011;67668;52.294;4.692;2023-07-29T13:37:42;5.13;;;2.00;;
78382;SDS011;67668;52.294;4.692;2023-07-29T13:40:08;2.22;;;0.93;;
78382;SDS011;67668;52.294;4.692;2023-07-29T13:42:33;3.40;;;0.60;;
78382;SDS011;67668;52.294;4.692;2023-07-29T13:45:00;2.63;;;0.73;;
78382;SDS011;67668;52.294;4.692;2023-07-29T13:47:27;2.58;;;0.80;;
78382;SDS011;67668;52.294;4.692;2023-07-29T13:49:52;3.90;;;0.77;;
78382;SDS011;67668;52.294;4.692;2023-07-29T13:52:18;2.72;;;0.77;;
78382;SDS011;67668;52.294;4.692;2023-07-29T13:54:43;1.90;;;0.90;;
78382;SDS011;67668;52.294;4.692;2023-07-29T13:57:09;4.82;;;1.10;;
78382;SDS011;67668;52.294;4.692;2023-07-29T13:59:35;2.72;;;1.40;;
78382;SDS011;67668;52.294;4.692;2023-07-29T14:02:04;4.25;;;0.88;;
78382;SDS011;67668;52.294;4.692;2023-07-29T14:04:30;1.15;;;0.57;;
78382;SDS011;67668;52.294;4.692;2023-07-29T14:06:57;2.03;;;1.00;;
78382;SDS011;67668;52.294;4.692;2023-07-29T14:09:23;3.78;;;0.68;;
78382;SDS011;67668;52.294;4.692;2023-07-29T14:11:49;2.60;;;0.82;;
78382;SDS011;67668;52.294;4.692;2023-07-29T14:14:15;1.83;;;0.75;;
78382;SDS011;67668;52.294;4.692;2023-07-29T14:16:40;3.05;;;0.73;;
78382;SDS011;67668;52.294;4.692;2023-07-29T14:19:06;2.42;;;1.50;;
78382;SDS011;67668;52.294;4.692;2023-07-29T14:21:31;4.20;;;0.90;;
78382;SDS011;67668;52.294;4.692;2023-07-29T14:23:57;2.25;;;1.17;;
78382;SDS011;67668;52.294;4.692;2023-07-29T14:26:22;2.03;;;0.63;;
78382;SDS011;67668;52.294;4.692;2023-07-29T14:28:47;3.20;;;0.83;;
78382;SDS011;67668;52.294;4.692;2023-07-29T14:31:15;3.67;;;0.77;;
78382;SDS011;67668;52.294;4.692;2023-07-29T14:33:41;2.78;;;0.90;;
78382;SDS011;67668;52.294;4.692;2023-07-29T14:36:07;3.72;;;1.15;;
78382;SDS011;67668;52.294;4.692;2023-07-29T14:38:32;3.08;;;1.10;;
78382;SDS011;67668;52.294;4.692;2023-07-29T14:40:58;2.60;;;0.83;;
78382;SDS011;67668;52.294;4.692;2023-07-29T14:43:23;3.60;;;1.25;;
78382;SDS011;67668;52.294;4.692;2023-07-29T14:45:49;4.00;;;1.40;;
78382;SDS011;67668;52.294;4.692;2023-07-29T14:48:14;3.00;;;1.13;;
78382;SDS011;67668;52.294;4.692;2023-07-29T14:50:40;6.40;;;1.20;;
78382;SDS011;67668;52.294;4.692;2023-07-29T14:53:06;5.03;;;1.40;;
78382;SDS011;67668;52.294;4.692;2023-07-29T14:55:31;4.75;;;1.10;;
78382;SDS011;67668;52.294;4.692;2023-07-29T14:57:57;4.70;;;1.48;;
78382;SDS011;67668;52.294;4.692;2023-07-29T15:00:22;5.50;;;1.50;;
78382;SDS011;67668;52.294;4.692;2023-07-29T15:02:48;2.47;;;1.10;;
78382;SDS011;67668;52.294;4.692;2023-07-29T15:05:13;3.63;;;1.40;;
78382;SDS011;67668;52.294;4.692;2023-07-29T15:07:39;3.17;;;1.45;;
78382;SDS011;67668;52.294;4.692;2023-07-29T15:10:05;5.93;;;1.58;;
78382;SDS011;67668;52.294;4.692;2023-07-29T15:12:30;2.53;;;1.10;;